Flight Track Log - Related Links

Times and Time Zones

All times are in EDT time to prevent confusion due to time zone crossing. See the EJA929 flight status page for this flight to view local times or setup timezone preferences in your user account.

Time Position Orientation Groundspeed Altitude Reporting Facility
EDT Latitude Longitude Course Direction KTS MPH feet Rate Location/Type
Sat 11:22:21 AM 45.5967 -122.6000 299° West 207 238 800  Level Seattle Center
Sat 11:22:57 AM 45.6111 -122.6375 299° West 207 238 2,700 3,761 Climbing Seattle Center
Sat 11:23:28 AM 45.6292 -122.6856 298° West 246 283 5,000 4,230 Climbing Seattle Center
Sat 11:23:58 AM 45.6233 -122.7281 259° West 255 293 7,000 4,022 Climbing Seattle Center
Sat 11:24:59 AM 45.5514 -122.7125 171° South 314 361 11,100 3,492 Climbing Seattle Center
Sat 11:26:00 AM 45.4956 -122.6100 128° Southeast 327 376 14,100 2,410 Climbing Seattle Center
Sat 11:27:01 AM 45.4389 -122.4997 126° Southeast 340 391 16,000 1,721 Climbing Seattle Center
Sat 11:28:02 AM 45.3786 -122.3808 126° Southeast 363 418 17,600 1,377 Climbing Seattle Center
Sat 11:29:03 AM 45.2933 -122.2861 142° Southeast 393 452 18,800 1,279 Climbing Seattle Center
Sat 11:30:04 AM 45.1917 -122.2164 154° Southeast 402 463 20,200 1,525 Climbing Seattle Center
Sat 11:31:05 AM 45.0878 -122.1472 155° Southeast 408 470 21,900 1,574 Climbing Seattle Center
Sat 11:32:06 AM 44.9800 -122.0750 155° Southeast 419 482 23,400 1,623 Climbing Seattle Center
Sat 11:33:07 AM 44.8564 -121.9939 155° Southeast 435 501 25,200 1,721 Climbing Seattle Center
Sat 11:34:08 AM 44.7419 -121.9183 155° Southeast 447 514 26,900 1,672 Climbing Seattle Center
Sat 11:35:09 AM 44.6150 -121.8350 155° Southeast 456 525 28,600 1,574 Climbing Seattle Center
Sat 11:36:10 AM 44.4989 -121.7619 156° South 459 528 30,100 1,426 Climbing Seattle Center
Sat 11:37:11 AM 44.3811 -121.6858 155° Southeast 466 536 31,500 1,869 Climbing Seattle Center
Sat 11:38:12 AM 44.2608 -121.6086 155° Southeast 473 544 33,900 2,311 Climbing Seattle Center
Sat 11:39:13 AM 44.1436 -121.5331 155° Southeast 469 540 36,200 2,066 Climbing Seattle Center
Sat 11:40:14 AM 44.0286 -121.4597 155° Southeast 459 528 38,100 1,820 Climbing Seattle Center
Sat 11:41:15 AM 43.9158 -121.3883 155° Southeast 449 517 39,900 1,377 Climbing Seattle Center
Sat 11:42:16 AM 43.7908 -121.3103 156° South 454 522 40,900 541 Climbing Seattle Center
Sat 11:43:17 AM 43.6739 -121.2378 156° South 459 528 41,000 49 Climbing Seattle Center
Sat 11:44:18 AM 43.5500 -121.1581 155° Southeast 484 557 41,000  Level Seattle Center
Sat 11:45:19 AM 43.4247 -121.0800 156° South 493 567 41,000  Level Seattle Center
Sat 11:46:20 AM 43.2972 -120.9994 155° Southeast 501 577 41,000  Level Seattle Center
Sat 11:47:21 AM 43.1706 -120.9244 157° South 499 574 41,000  Level Seattle Center
Sat 11:48:22 AM 43.0422 -120.8428 155° Southeast 504 580 41,000  Level Seattle Center
Sat 11:49:23 AM 42.9142 -120.7644 156° South 505 581 41,000  Level Seattle Center
Sat 11:50:24 AM 42.7814 -120.7222 167° South 494 568 41,000  Level Seattle Center
Sat 11:51:26 AM 42.6228 -120.7022 175° South 479 551 41,000  Level Seattle Center
Sat 11:52:27 AM 42.4881 -120.6867 175° South 483 556 41,000  Level Seattle Center
Sat 11:53:28 AM 42.3528 -120.6694 175° South 488 562 41,000  Level Seattle Center
Sat 11:54:29 AM 42.2169 -120.6528 175° South 489 563 41,000  Level Seattle Center
Sat 11:55:30 AM 42.0808 -120.6369 175° South 490 564 41,000  Level Seattle Center
Sat 11:56:31 AM 41.9472 -120.6203 175° South 482 555 41,000  Level Seattle Center
Sat 11:57:32 AM 41.8108 -120.6050 175° South 488 562 41,000  Level Seattle Center
Sat 11:58:33 AM 41.6758 -120.5889 175° South 486 559 41,000  Level Seattle Center
Sat 11:59:34 AM 41.5425 -120.5719 175° South 481 554 41,000  Level Seattle Center
Sat 12:00:36 PM 41.4083 -120.5556 175° South 484 557 41,000  Level Seattle Center
Sat 12:01:37 PM 41.2750 -120.5400 175° South 481 554 41,000  Level Seattle Center
Sat 12:02:38 PM 41.1428 -120.5242 175° South 477 549 41,000  Level Seattle Center
Sat 12:03:39 PM 41.0100 -120.5072 174° South 478 550 41,000  Level Seattle Center
Sat 12:04:40 PM 40.8514 -120.4892 175° South 479 551 41,000  Level Seattle Center
Sat 12:05:41 PM 40.7186 -120.4744 175° South 478 550 41,000  Level Seattle Center
Sat 12:06:42 PM 40.5889 -120.4567 174° South 471 542 41,000  Level Seattle Center
Sat 12:07:45 PM 40.4517 -120.4414 175° South 459 528 41,000  Level Oakland Center
Sat 12:08:45 PM 40.3297 -120.4261 175° South 473 544 41,000  Level Seattle Center
Sat 12:09:48 PM 40.1894 -120.4122 176° South 473 544 41,000  Level Oakland Center
Sat 12:10:49 PM 40.0581 -120.3964 175° South 474 545 41,000  Level Oakland Center
Sat 12:11:50 PM 39.9328 -120.3811 175° South 471 542 41,000  Level Oakland Center
Sat 12:12:51 PM 39.8022 -120.3661 175° South 470 541 41,000  Level Oakland Center
Sat 12:13:53 PM 39.6450 -120.3489 175° South 471 542 41,000  Level Oakland Center
Sat 12:14:54 PM 39.5125 -120.3339 175° South 474 545 41,000  Level Oakland Center
Sat 12:15:55 PM 39.3803 -120.3186 175° South 475 547 41,000  Level Oakland Center
Sat 12:16:57 PM 39.2483 -120.3039 175° South 475 547 41,000  Level Oakland Center
Sat 12:17:58 PM 39.1161 -120.2881 175° South 473 544 41,000  Level Oakland Center
Sat 12:18:59 PM 38.9833 -120.2739 175° South 475 547 41,000  Level Oakland Center
Sat 12:20:01 PM 38.8517 -120.2589 175° South 474 545 41,000  Level Oakland Center
Sat 12:21:02 PM 38.7192 -120.2447 175° South 474 545 41,000  Level Oakland Center
Sat 12:22:03 PM 38.5875 -120.2300 175° South 473 544 41,000  Level Oakland Center
Sat 12:23:05 PM 38.4561 -120.2158 175° South 471 542 41,000  Level Oakland Center
Sat 12:24:06 PM 38.3247 -120.2006 175° South 472 543 41,000  Level Oakland Center
Sat 12:25:08 PM 38.1950 -120.1881 176° South 467 537 41,000  Level Oakland Center
Sat 12:26:09 PM 38.0372 -120.1706 175° South 471 542 41,000  Level Oakland Center
Sat 12:27:10 PM 37.9058 -120.1564 175° South 472 543 41,000  Level Oakland Center
Sat 12:28:12 PM 37.7750 -120.1414 175° South 472 543 41,000  Level Oakland Center
Sat 12:29:13 PM 37.6442 -120.1281 175° South 472 543 41,000  Level Oakland Center
Sat 12:30:15 PM 37.5125 -120.1128 175° South 473 544 41,000  Level Oakland Center
Sat 12:31:16 PM 37.3800 -120.0992 175° South 475 547 41,000  Level Oakland Center
Sat 12:32:18 PM 37.2475 -120.0861 176° South 477 549 41,000  Level Oakland Center
Sat 12:33:19 PM 37.1153 -120.0656 173° South 478 550 41,000  Level Oakland Center
Sat 12:34:20 PM 36.9636 -120.0275 169° South 482 555 41,000  Level Oakland Center
Sat 12:35:22 PM 36.8319 -119.9975 170° South 481 554 41,000  Level Oakland Center
Sat 12:36:24 PM 36.7014 -119.9700 170° South 477 549 41,000  Level Oakland Center
Sat 12:37:24 PM 36.5697 -119.9392 169° South 480 552 41,000  Level Oakland Center
Sat 12:38:26 PM 36.4381 -119.9083 169° South 480 552 41,000  Level Oakland Center
Sat 12:39:27 PM 36.3069 -119.8786 170° South 479 551 41,000  Level Oakland Center
Sat 12:40:29 PM 36.1742 -119.8494 170° South 482 555 41,000  Level Oakland Center
Sat 12:41:30 PM 36.0428 -119.8175 169° South 481 554 41,000  Level Oakland Center
Sat 12:42:31 PM 35.9094 -119.7883 170° South 483 556 41,000  Level Oakland Center
Sat 12:43:33 PM 35.7508 -119.7519 169° South 481 554 41,000  Level Oakland Center
Sat 12:44:34 PM 35.6161 -119.7208 169° South 486 559 41,000  Level Oakland Center
Sat 12:45:11 PM 35.5389 -119.7039 170° South 479 551 41,000  Level Los Angeles Center
Sat 12:46:13 PM 35.4081 -119.6747 170° South 474 545 41,000 -48 Level Los Angeles Center
Sat 12:47:15 PM 35.2789 -119.6433 169° South 471 542 40,900  Descending Los Angeles Center
Sat 12:48:17 PM 35.1622 -119.5617 150° Southeast 482 555 41,000 -774 Climbing Los Angeles Center
Sat 12:49:19 PM 35.0583 -119.4722 145° Southeast 464 534 39,300 -2,016 Descending Los Angeles Center
Sat 12:50:22 PM 34.9519 -119.3828 145° Southeast 463 533 36,800 -2,672 Descending Los Angeles Center
Sat 12:51:36 PM 34.7997 -119.2506 144° Southeast 479 551 33,200 -2,735 Descending Los Angeles Center
Sat 12:52:38 PM 34.6886 -119.1581 146° Southeast 482 555 30,600 -2,468 Descending Los Angeles Center
Sat 12:53:40 PM 34.5769 -119.0678 146° Southeast 491 565 28,100 -2,516 Descending Los Angeles Center
Sat 12:54:42 PM 34.4653 -118.9736 145° Southeast 490 564 25,400 -2,516 Descending Los Angeles Center
Sat 12:55:44 PM 34.3547 -118.8833 146° Southeast 481 554 22,900 -2,565 Descending Los Angeles Center
Sat 12:56:46 PM 34.2147 -118.8283 162° South 439 505 20,100 -2,516 Descending Los Angeles Center
Sat 12:57:48 PM 34.0969 -118.7858 163° South 441 507 17,700 -2,274 Descending Los Angeles Center
Sat 12:58:50 PM 33.9825 -118.7439 163° South 426 490 15,400 -1,790 Descending Los Angeles Center
Sat 12:59:52 PM 33.8658 -118.7028 164° South 404 465 14,000 -677 Descending Los Angeles Center
Sat 01:00:54 PM 33.7697 -118.6675 163° South 405 466 14,000 -435 Level Los Angeles Center
Sat 01:01:56 PM 33.6439 -118.6233 164° South 384 442 13,100 -1,488 Descending Los Angeles Center
Sat 01:02:59 PM 33.5597 -118.5783 156° South 338 389 10,900 -2,016 Descending Los Angeles Center
Sat 01:04:01 PM 33.5092 -118.4981 127° Southeast 313 360 8,900 -2,129 Descending Los Angeles Center
Sat 01:05:03 PM 33.4672 -118.4153 121° Southeast 300 345 6,500 -1,887 Descending Los Angeles Center
Sat 01:06:05 PM 33.4639 -118.3217 92° East 288 331 5,000 -726 Descending Los Angeles Center
Sat 01:07:07 PM 33.5156 -118.2331 55° Northeast 283 326 5,000  Level Los Angeles Center
Sat 01:08:09 PM 33.5569 -118.1592 56° Northeast 276 318 5,000  Level Los Angeles Center
Sat 01:09:11 PM 33.5997 -118.0869 55° Northeast 272 313 5,000  Level Los Angeles Center
Sat 01:09:57 PM 33.6333 -118.0333 53° Northeast 267 307 5,000  Level Southern California TRACON
Sat 01:11:03 PM 33.7000 -117.9667 40° Northeast 227 261 5,000  Level Southern California TRACON
Sat 01:12:03 PM 33.7500 -117.9167 40° Northeast 231 266 5,000 -650 Level Southern California TRACON
Sat 01:13:03 PM 33.8000 -117.8667 40° Northeast 239 275 3,700 -1,000 Descending Southern California TRACON
Sat 01:14:03 PM 33.8500 -117.8167 40° Northeast 225 259 3,000 -368 Descending Southern California TRACON
Sat 01:14:57 PM 33.8500 -117.7667 90° East 199 229 3,000 -50 Level Southern California TRACON
Sat 01:16:03 PM 33.8000 -117.7833 195° South 148 170 2,900 -425 Descending Southern California TRACON
Sat 01:17:04 PM 33.7667 -117.8000 203° Southwest 143 165 2,100 -744 Descending Southern California TRACON
Sat 01:18:04 PM 33.7333 -117.8333 220° Southwest 140 161 1,400 -700 Descending Southern California TRACON
Sat 01:19:04 PM 33.7000 -117.8500 203° Southwest 145 167 700 -700 Descending Southern California TRACON

Login

Don't have an account? Register now (free) for customized features, flight alerts, and more!